SWR1PA EGLL-LSZH
Flight info
| Callsign | SWR1PA |
|---|---|
| Flight time | 1h 17m |
| Altitude | 25000 |
| Route | DET L6 DVR UL9 KONAN DCT KOK DCT SISGA DCT RITAX DCT KRH M150 LAMGO T721 RILAX |
| Aircraft | A320/M-SDE3FGHIRWY/LB1 |
Departure
| Time | 2026-05-05 21:39 |
|---|---|
| Airport | London Heathrow Airport (EGLL) |
Arrival
| Time | 2026-05-05 22:57 |
|---|---|
| Airport | Zürich Airport (LSZH) |
| Time | Latitude | Longitude | Altitude | Speed | Heading |
|---|---|---|---|---|---|
| 2026-05-05 21:16 | 51.46931 | -0.48647 | 86 ft | 0 kts | 360° |
| 2026-05-05 21:19 | 51.46928 | -0.48716 | 88 ft | 0 kts | 360° |
| 2026-05-05 21:34 | 51.46921 | -0.48716 | 86 ft | 4 kts | 1° |
| 2026-05-05 21:34 | 51.46894 | -0.48716 | 86 ft | 4 kts | 352° |
| 2026-05-05 21:35 | 51.46877 | -0.48708 | 86 ft | 3 kts | 273° |
| 2026-05-05 21:35 | 51.46877 | -0.48704 | 86 ft | 0 kts | 270° |
| 2026-05-05 21:37 | 51.46877 | -0.48720 | 90 ft | 4 kts | 266° |
| 2026-05-05 21:37 | 51.46846 | -0.48748 | 88 ft | 7 kts | 187° |
| 2026-05-05 21:37 | 51.46788 | -0.48750 | 86 ft | 10 kts | 180° |
| 2026-05-05 21:37 | 51.46701 | -0.48749 | 86 ft | 15 kts | 180° |
| 2026-05-05 21:38 | 51.46604 | -0.48769 | 89 ft | 13 kts | 195° |
| 2026-05-05 21:38 | 51.46518 | -0.48783 | 90 ft | 12 kts | 167° |
| 2026-05-05 21:38 | 51.46479 | -0.48679 | 86 ft | 12 kts | 94° |
| 2026-05-05 21:38 | 51.46480 | -0.48457 | 87 ft | 38 kts | 89° |
| 2026-05-05 21:39 | 51.46484 | -0.47630 | 86 ft | 108 kts | 90° |
| 2026-05-05 21:39 | 51.46488 | -0.46116 | 127 ft | 157 kts | 88° |
| 2026-05-05 21:39 | 51.46493 | -0.44353 | 744 ft | 161 kts | 89° |
| 2026-05-05 21:39 | 51.46496 | -0.42550 | 1549 ft | 161 kts | 91° |
| 2026-05-05 21:40 | 51.46288 | -0.40787 | 2331 ft | 161 kts | 102° |
| 2026-05-05 21:40 | 51.46022 | -0.39053 | 3030 ft | 160 kts | 102° |
| 2026-05-05 21:40 | 51.45756 | -0.37325 | 3698 ft | 160 kts | 101° |
| 2026-05-05 21:40 | 51.45490 | -0.35599 | 4342 ft | 160 kts | 101° |
| 2026-05-05 21:41 | 51.45223 | -0.33850 | 4883 ft | 167 kts | 100° |
| 2026-05-05 21:41 | 51.44933 | -0.31917 | 5176 ft | 189 kts | 101° |
| 2026-05-05 21:41 | 51.44606 | -0.29743 | 5462 ft | 212 kts | 101° |
| 2026-05-05 21:41 | 51.44235 | -0.27315 | 5761 ft | 237 kts | 101° |
| 2026-05-05 21:42 | 51.43864 | -0.24607 | 6183 ft | 261 kts | 100° |
| 2026-05-05 21:42 | 51.43495 | -0.21686 | 6874 ft | 272 kts | 99° |
| 2026-05-05 21:42 | 51.43123 | -0.18673 | 7708 ft | 279 kts | 99° |
| 2026-05-05 21:42 | 51.42744 | -0.15597 | 8574 ft | 284 kts | 99° |
| 2026-05-05 21:43 | 51.42354 | -0.12456 | 9449 ft | 290 kts | 99° |
| 2026-05-05 21:43 | 51.41949 | -0.09259 | 10223 ft | 299 kts | 99° |
| 2026-05-05 21:43 | 51.41519 | -0.05868 | 10532 ft | 322 kts | 99° |
| 2026-05-05 21:43 | 51.41054 | -0.02222 | 10800 ft | 346 kts | 100° |
| 2026-05-05 21:44 | 51.40560 | 0.01616 | 11408 ft | 356 kts | 100° |
| 2026-05-05 21:44 | 51.40052 | 0.05520 | 12165 ft | 360 kts | 101° |
| 2026-05-05 21:44 | 51.39536 | 0.09470 | 12924 ft | 365 kts | 101° |
| 2026-05-05 21:44 | 51.39014 | 0.13466 | 13675 ft | 369 kts | 101° |
| 2026-05-05 21:45 | 51.38486 | 0.17508 | 14357 ft | 373 kts | 101° |
| 2026-05-05 21:45 | 51.37950 | 0.21589 | 15034 ft | 376 kts | 101° |
| 2026-05-05 21:45 | 51.37418 | 0.25646 | 15696 ft | 379 kts | 101° |
| 2026-05-05 21:45 | 51.36873 | 0.29791 | 16373 ft | 382 kts | 101° |
| 2026-05-05 21:46 | 51.36323 | 0.33967 | 17053 ft | 385 kts | 101° |
| 2026-05-05 21:46 | 51.35767 | 0.38167 | 17718 ft | 388 kts | 101° |
| 2026-05-05 21:46 | 51.35202 | 0.42422 | 18372 ft | 391 kts | 101° |
| 2026-05-05 21:46 | 51.34663 | 0.46468 | 18899 ft | 395 kts | 101° |
| 2026-05-05 21:47 | 51.34086 | 0.50777 | 19490 ft | 398 kts | 101° |
| 2026-05-05 21:47 | 51.33505 | 0.55118 | 20074 ft | 401 kts | 101° |
| 2026-05-05 21:47 | 51.32917 | 0.59487 | 20669 ft | 403 kts | 101° |
| 2026-05-05 21:47 | 51.32324 | 0.63885 | 21326 ft | 406 kts | 101° |
| 2026-05-05 21:48 | 51.31725 | 0.68317 | 21843 ft | 410 kts | 101° |
| 2026-05-05 21:48 | 51.31118 | 0.72792 | 22334 ft | 414 kts | 101° |
| 2026-05-05 21:48 | 51.30501 | 0.77299 | 22824 ft | 417 kts | 101° |
| 2026-05-05 21:48 | 51.29876 | 0.81843 | 23293 ft | 420 kts | 101° |
| 2026-05-05 21:49 | 51.29247 | 0.86418 | 23720 ft | 424 kts | 101° |
| 2026-05-05 21:49 | 51.28614 | 0.91035 | 24101 ft | 426 kts | 102° |
| 2026-05-05 21:49 | 51.27977 | 0.95679 | 24469 ft | 429 kts | 102° |
| 2026-05-05 21:49 | 51.27337 | 1.00320 | 24950 ft | 428 kts | 102° |
| 2026-05-05 21:50 | 51.26694 | 1.04977 | 25352 ft | 430 kts | 102° |
| 2026-05-05 21:50 | 51.26047 | 1.09647 | 25731 ft | 432 kts | 102° |
| 2026-05-05 21:50 | 51.25395 | 1.14338 | 26099 ft | 434 kts | 102° |
| 2026-05-05 21:50 | 51.24736 | 1.19052 | 26458 ft | 437 kts | 103° |
| 2026-05-05 21:51 | 51.24071 | 1.23798 | 26804 ft | 439 kts | 103° |
| 2026-05-05 21:51 | 51.23400 | 1.28559 | 27144 ft | 441 kts | 103° |
| 2026-05-05 21:51 | 51.22722 | 1.33349 | 27463 ft | 444 kts | 103° |
| 2026-05-05 21:51 | 51.22038 | 1.38163 | 27785 ft | 446 kts | 103° |
| 2026-05-05 21:52 | 51.20660 | 1.47836 | 28503 ft | 447 kts | 104° |
| 2026-05-05 21:52 | 51.19969 | 1.52674 | 28844 ft | 447 kts | 104° |
| 2026-05-05 21:52 | 51.19274 | 1.57511 | 29167 ft | 448 kts | 104° |
| 2026-05-05 21:53 | 51.18575 | 1.62362 | 29440 ft | 450 kts | 104° |
| 2026-05-05 21:53 | 51.18111 | 1.65578 | 29596 ft | 451 kts | 104° |
| 2026-05-05 21:53 | 51.17406 | 1.70458 | 29839 ft | 452 kts | 104° |
| 2026-05-05 21:53 | 51.16698 | 1.75332 | 30155 ft | 451 kts | 103° |
| 2026-05-05 21:54 | 51.15989 | 1.80193 | 30440 ft | 450 kts | 104° |
| 2026-05-05 21:54 | 51.15279 | 1.85038 | 30739 ft | 448 kts | 104° |
| 2026-05-05 21:54 | 51.14571 | 1.89855 | 31079 ft | 446 kts | 104° |
| 2026-05-05 21:54 | 51.13861 | 1.94650 | 31381 ft | 444 kts | 105° |
| 2026-05-05 21:55 | 51.13185 | 1.99444 | 31684 ft | 444 kts | 101° |
| 2026-05-05 21:55 | 51.12843 | 2.04331 | 31994 ft | 444 kts | 97° |
| 2026-05-05 21:55 | 51.12591 | 2.09222 | 32283 ft | 444 kts | 97° |
| 2026-05-05 21:55 | 51.12333 | 2.14114 | 32571 ft | 443 kts | 97° |
| 2026-05-05 21:56 | 51.12069 | 2.18989 | 32874 ft | 442 kts | 97° |
| 2026-05-05 21:56 | 51.11803 | 2.23854 | 33157 ft | 441 kts | 97° |
| 2026-05-05 21:56 | 51.11539 | 2.28720 | 33453 ft | 440 kts | 97° |
| 2026-05-05 21:56 | 51.11272 | 2.33565 | 33754 ft | 440 kts | 97° |
| 2026-05-05 21:57 | 51.11004 | 2.38409 | 34031 ft | 439 kts | 98° |
| 2026-05-05 21:57 | 51.10734 | 2.43244 | 34257 ft | 439 kts | 98° |
| 2026-05-05 21:57 | 51.10460 | 2.48093 | 34465 ft | 440 kts | 97° |
| 2026-05-05 21:57 | 51.10186 | 2.52950 | 34671 ft | 441 kts | 97° |
| 2026-05-05 21:58 | 51.09909 | 2.57814 | 34857 ft | 442 kts | 97° |
| 2026-05-05 21:58 | 51.08621 | 2.67307 | 34917 ft | 438 kts | 114° |
| 2026-05-05 21:59 | 51.05901 | 2.75932 | 34917 ft | 436 kts | 120° |
| 2026-05-05 21:59 | 51.03074 | 2.84465 | 34911 ft | 436 kts | 120° |
| 2026-05-05 22:00 | 51.00251 | 2.92986 | 34920 ft | 435 kts | 120° |
| 2026-05-05 22:00 | 50.97416 | 3.01468 | 34917 ft | 435 kts | 120° |
| 2026-05-05 22:01 | 50.94576 | 3.09941 | 34912 ft | 435 kts | 120° |
| 2026-05-05 22:01 | 50.91725 | 3.18397 | 34898 ft | 435 kts | 120° |
| 2026-05-05 22:02 | 50.88865 | 3.26851 | 34899 ft | 435 kts | 120° |
| 2026-05-05 22:02 | 50.86006 | 3.35298 | 34898 ft | 435 kts | 120° |
| 2026-05-05 22:03 | 50.83146 | 3.43730 | 34895 ft | 435 kts | 120° |
| 2026-05-05 22:03 | 50.80291 | 3.52114 | 34895 ft | 436 kts | 120° |
| 2026-05-05 22:04 | 50.77406 | 3.60541 | 34890 ft | 436 kts | 120° |
| 2026-05-05 22:04 | 50.74518 | 3.68957 | 34890 ft | 436 kts | 120° |
| 2026-05-05 22:05 | 50.71623 | 3.77365 | 34886 ft | 436 kts | 120° |
| 2026-05-05 22:05 | 50.68718 | 3.85756 | 34887 ft | 436 kts | 120° |
| 2026-05-05 22:06 | 50.65814 | 3.94141 | 34881 ft | 436 kts | 120° |
| 2026-05-05 22:06 | 50.62898 | 4.02512 | 34881 ft | 436 kts | 120° |
| 2026-05-05 22:07 | 50.60070 | 4.10952 | 34873 ft | 436 kts | 117° |
| 2026-05-05 22:07 | 50.57521 | 4.19623 | 34868 ft | 437 kts | 116° |
| 2026-05-05 22:08 | 50.55023 | 4.28317 | 34866 ft | 436 kts | 116° |
| 2026-05-05 22:08 | 50.52465 | 4.36937 | 34865 ft | 435 kts | 117° |
| 2026-05-05 22:09 | 50.49859 | 4.45521 | 34865 ft | 435 kts | 117° |
| 2026-05-05 22:09 | 50.47244 | 4.54097 | 34865 ft | 435 kts | 117° |
| 2026-05-05 22:10 | 50.44632 | 4.62671 | 34861 ft | 435 kts | 117° |
| 2026-05-05 22:10 | 50.42030 | 4.71206 | 34862 ft | 433 kts | 117° |
| 2026-05-05 22:11 | 50.39420 | 4.79713 | 34861 ft | 433 kts | 117° |
| 2026-05-05 22:11 | 50.36801 | 4.88200 | 34854 ft | 433 kts | 118° |
| 2026-05-05 22:12 | 50.34179 | 4.96687 | 34854 ft | 433 kts | 117° |
| 2026-05-05 22:12 | 50.31562 | 5.05174 | 34851 ft | 433 kts | 117° |
| 2026-05-05 22:13 | 50.28941 | 5.13645 | 34852 ft | 433 kts | 117° |
| 2026-05-05 22:13 | 50.26300 | 5.22098 | 34848 ft | 433 kts | 117° |
| 2026-05-05 22:14 | 50.23654 | 5.30542 | 34848 ft | 433 kts | 117° |
| 2026-05-05 22:14 | 50.21008 | 5.38982 | 34846 ft | 433 kts | 117° |
| 2026-05-05 22:15 | 50.18360 | 5.47408 | 34842 ft | 433 kts | 117° |
| 2026-05-05 22:15 | 50.15692 | 5.55830 | 34841 ft | 434 kts | 117° |
| 2026-05-05 22:16 | 50.13016 | 5.64266 | 34840 ft | 434 kts | 118° |
| 2026-05-05 22:16 | 50.10331 | 5.72698 | 34841 ft | 434 kts | 118° |
| 2026-05-05 22:17 | 50.07634 | 5.81108 | 34835 ft | 434 kts | 118° |
| 2026-05-05 22:17 | 50.04716 | 5.89325 | 34835 ft | 433 kts | 122° |
| 2026-05-05 22:18 | 50.01624 | 5.97399 | 34832 ft | 436 kts | 122° |
| 2026-05-05 22:18 | 49.98529 | 6.05508 | 34834 ft | 436 kts | 121° |
| 2026-05-05 22:19 | 49.95473 | 6.13660 | 34834 ft | 437 kts | 121° |
| 2026-05-05 22:19 | 49.92432 | 6.21816 | 34821 ft | 437 kts | 121° |
| 2026-05-05 22:20 | 49.89374 | 6.29964 | 34818 ft | 437 kts | 121° |
| 2026-05-05 22:20 | 49.86301 | 6.38078 | 34804 ft | 437 kts | 122° |
| 2026-05-05 22:21 | 49.83214 | 6.46202 | 34810 ft | 438 kts | 122° |
| 2026-05-05 22:21 | 49.80123 | 6.54327 | 34799 ft | 438 kts | 122° |
| 2026-05-05 22:22 | 49.77023 | 6.62450 | 34810 ft | 440 kts | 122° |
| 2026-05-05 22:22 | 49.73924 | 6.70560 | 34801 ft | 441 kts | 122° |
| 2026-05-05 22:23 | 49.70847 | 6.78583 | 34795 ft | 442 kts | 122° |
| 2026-05-05 22:23 | 49.67706 | 6.86750 | 34813 ft | 443 kts | 122° |
| 2026-05-05 22:24 | 49.64556 | 6.94916 | 34813 ft | 443 kts | 122° |
| 2026-05-05 22:24 | 49.61402 | 7.03051 | 34827 ft | 443 kts | 122° |
| 2026-05-05 22:25 | 49.58228 | 7.11210 | 34824 ft | 443 kts | 122° |
| 2026-05-05 22:25 | 49.55052 | 7.19342 | 34813 ft | 443 kts | 123° |
| 2026-05-05 22:26 | 49.51869 | 7.27476 | 34827 ft | 444 kts | 123° |
| 2026-05-05 22:26 | 49.48675 | 7.35612 | 34827 ft | 445 kts | 123° |
| 2026-05-05 22:27 | 49.45476 | 7.43753 | 34830 ft | 445 kts | 123° |
| 2026-05-05 22:27 | 49.42273 | 7.51884 | 34822 ft | 445 kts | 123° |
| 2026-05-05 22:28 | 49.39057 | 7.59990 | 34805 ft | 444 kts | 124° |
| 2026-05-05 22:28 | 49.35841 | 7.68087 | 34823 ft | 444 kts | 123° |
| 2026-05-05 22:29 | 49.32620 | 7.76174 | 34825 ft | 444 kts | 124° |
| 2026-05-05 22:29 | 49.29392 | 7.84247 | 34828 ft | 444 kts | 124° |
| 2026-05-05 22:30 | 49.26160 | 7.92308 | 34831 ft | 444 kts | 124° |
| 2026-05-05 22:30 | 49.22925 | 8.00366 | 34822 ft | 445 kts | 124° |
| 2026-05-05 22:31 | 49.19683 | 8.08417 | 34842 ft | 445 kts | 124° |
| 2026-05-05 22:31 | 49.16432 | 8.16465 | 34847 ft | 445 kts | 124° |
| 2026-05-05 22:32 | 49.13174 | 8.24501 | 34844 ft | 445 kts | 124° |
| 2026-05-05 22:32 | 49.09908 | 8.32523 | 34848 ft | 445 kts | 124° |
| 2026-05-05 22:33 | 49.06654 | 8.40473 | 34847 ft | 445 kts | 124° |
| 2026-05-05 22:33 | 49.03354 | 8.48525 | 34854 ft | 445 kts | 124° |
| 2026-05-05 22:34 | 49.00077 | 8.56517 | 34851 ft | 445 kts | 125° |
| 2026-05-05 22:34 | 48.96293 | 8.63899 | 34848 ft | 442 kts | 132° |
| 2026-05-05 22:35 | 48.92183 | 8.70748 | 34856 ft | 439 kts | 143° |
| 2026-05-05 22:35 | 48.89657 | 8.73312 | 34857 ft | 436 kts | 154° |
| 2026-05-05 22:35 | 48.86828 | 8.75064 | 34859 ft | 433 kts | 166° |
| 2026-05-05 22:35 | 48.83878 | 8.75896 | 34864 ft | 431 kts | 177° |
| 2026-05-05 22:36 | 48.80892 | 8.75824 | 34857 ft | 429 kts | 188° |
| 2026-05-05 22:36 | 48.75094 | 8.74290 | 34778 ft | 429 kts | 191° |
| 2026-05-05 22:36 | 48.73331 | 8.73816 | 34629 ft | 428 kts | 191° |
| 2026-05-05 22:37 | 48.69444 | 8.72781 | 34318 ft | 428 kts | 191° |
| 2026-05-05 22:37 | 48.66514 | 8.72003 | 34090 ft | 427 kts | 191° |
| 2026-05-05 22:37 | 48.63596 | 8.71228 | 33854 ft | 426 kts | 191° |
| 2026-05-05 22:37 | 48.60676 | 8.70450 | 33578 ft | 426 kts | 191° |
| 2026-05-05 22:38 | 48.57754 | 8.69674 | 33309 ft | 426 kts | 191° |
| 2026-05-05 22:38 | 48.55777 | 8.69151 | 33124 ft | 427 kts | 191° |
| 2026-05-05 22:38 | 48.52852 | 8.68378 | 32853 ft | 427 kts | 191° |
| 2026-05-05 22:38 | 48.49919 | 8.67604 | 32584 ft | 428 kts | 191° |
| 2026-05-05 22:39 | 48.46983 | 8.66827 | 32320 ft | 429 kts | 191° |
| 2026-05-05 22:39 | 48.44047 | 8.66050 | 31962 ft | 429 kts | 191° |
| 2026-05-05 22:39 | 48.41091 | 8.65265 | 30841 ft | 433 kts | 191° |
| 2026-05-05 22:39 | 48.38116 | 8.64471 | 29676 ft | 437 kts | 192° |
| 2026-05-05 22:40 | 48.35157 | 8.63646 | 28389 ft | 439 kts | 192° |
| 2026-05-05 22:40 | 48.32163 | 8.62756 | 27310 ft | 438 kts | 193° |
| 2026-05-05 22:40 | 48.29219 | 8.61851 | 26679 ft | 427 kts | 193° |
| 2026-05-05 22:40 | 48.26324 | 8.60946 | 25891 ft | 422 kts | 193° |
| 2026-05-05 22:41 | 48.23466 | 8.60060 | 25148 ft | 417 kts | 193° |
| 2026-05-05 22:41 | 48.20639 | 8.59199 | 24421 ft | 413 kts | 193° |
| 2026-05-05 22:41 | 48.17838 | 8.58358 | 23710 ft | 408 kts | 192° |
| 2026-05-05 22:41 | 48.15062 | 8.57526 | 22930 ft | 405 kts | 192° |
| 2026-05-05 22:42 | 48.12310 | 8.56701 | 22112 ft | 402 kts | 192° |
| 2026-05-05 22:42 | 48.09578 | 8.55885 | 21316 ft | 399 kts | 192° |
| 2026-05-05 22:42 | 48.06858 | 8.55078 | 20547 ft | 397 kts | 192° |
| 2026-05-05 22:42 | 48.04155 | 8.54280 | 19789 ft | 395 kts | 193° |
| 2026-05-05 22:43 | 48.01459 | 8.53485 | 19063 ft | 394 kts | 193° |
| 2026-05-05 22:43 | 47.98765 | 8.52780 | 18344 ft | 394 kts | 187° |
| 2026-05-05 22:43 | 47.96021 | 8.52831 | 17560 ft | 396 kts | 175° |
| 2026-05-05 22:43 | 47.93337 | 8.53798 | 16755 ft | 399 kts | 162° |
| 2026-05-05 22:44 | 47.90851 | 8.55666 | 15985 ft | 403 kts | 149° |
| 2026-05-05 22:44 | 47.88701 | 8.58160 | 15237 ft | 405 kts | 143° |
| 2026-05-05 22:44 | 47.86483 | 8.60868 | 14484 ft | 404 kts | 144° |
| 2026-05-05 22:44 | 47.84311 | 8.63512 | 13765 ft | 403 kts | 144° |
| 2026-05-05 22:45 | 47.82148 | 8.66139 | 12972 ft | 400 kts | 144° |
| 2026-05-05 22:45 | 47.79996 | 8.68751 | 12191 ft | 398 kts | 144° |
| 2026-05-05 22:45 | 47.77863 | 8.71337 | 11424 ft | 394 kts | 144° |
| 2026-05-05 22:45 | 47.75757 | 8.73887 | 10691 ft | 390 kts | 144° |
| 2026-05-05 22:46 | 47.73664 | 8.76417 | 9960 ft | 385 kts | 145° |
| 2026-05-05 22:46 | 47.71597 | 8.78912 | 9186 ft | 381 kts | 145° |
| 2026-05-05 22:46 | 47.69566 | 8.81365 | 8409 ft | 376 kts | 145° |
| 2026-05-05 22:46 | 47.67552 | 8.83790 | 7656 ft | 372 kts | 145° |
| 2026-05-05 22:47 | 47.65596 | 8.86144 | 6908 ft | 368 kts | 144° |
| 2026-05-05 22:47 | 47.63645 | 8.88496 | 6159 ft | 351 kts | 143° |
| 2026-05-05 22:47 | 47.61996 | 8.91042 | 5413 ft | 336 kts | 129° |
| 2026-05-05 22:47 | 47.60849 | 8.93931 | 5091 ft | 313 kts | 120° |
| 2026-05-05 22:48 | 47.59833 | 8.96514 | 4988 ft | 285 kts | 134° |
| 2026-05-05 22:48 | 47.58370 | 8.98376 | 4997 ft | 274 kts | 156° |
| 2026-05-05 22:48 | 47.56620 | 8.99320 | 4997 ft | 264 kts | 176° |
| 2026-05-05 22:48 | 47.54820 | 8.99310 | 5005 ft | 258 kts | 195° |
| 2026-05-05 22:49 | 47.53210 | 8.98451 | 4999 ft | 251 kts | 213° |
| 2026-05-05 22:49 | 47.51840 | 8.96931 | 5001 ft | 238 kts | 223° |
| 2026-05-05 22:49 | 47.50616 | 8.95424 | 4999 ft | 219 kts | 223° |
| 2026-05-05 22:49 | 47.49488 | 8.94041 | 5001 ft | 203 kts | 223° |
| 2026-05-05 22:50 | 47.48421 | 8.92728 | 5005 ft | 198 kts | 223° |
| 2026-05-05 22:50 | 47.47363 | 8.91426 | 5004 ft | 198 kts | 223° |
| 2026-05-05 22:50 | 47.46300 | 8.90118 | 5010 ft | 200 kts | 223° |
| 2026-05-05 22:50 | 47.45230 | 8.88803 | 4999 ft | 202 kts | 223° |
| 2026-05-05 22:51 | 47.44246 | 8.87320 | 5005 ft | 202 kts | 239° |
| 2026-05-05 22:51 | 47.43735 | 8.85431 | 5008 ft | 194 kts | 261° |
| 2026-05-05 22:51 | 47.43733 | 8.83543 | 5026 ft | 175 kts | 274° |
| 2026-05-05 22:51 | 47.43862 | 8.81836 | 4958 ft | 161 kts | 274° |
| 2026-05-05 22:52 | 47.43981 | 8.80238 | 4807 ft | 153 kts | 274° |
| 2026-05-05 22:52 | 47.44093 | 8.78705 | 4623 ft | 148 kts | 274° |
| 2026-05-05 22:52 | 47.44202 | 8.77221 | 4412 ft | 144 kts | 274° |
| 2026-05-05 22:52 | 47.44308 | 8.75769 | 4208 ft | 140 kts | 273° |
| 2026-05-05 22:53 | 47.44411 | 8.74360 | 4004 ft | 136 kts | 272° |
| 2026-05-05 22:53 | 47.44512 | 8.72981 | 3821 ft | 134 kts | 273° |
| 2026-05-05 22:53 | 47.44610 | 8.71624 | 3620 ft | 133 kts | 273° |
| 2026-05-05 22:53 | 47.44709 | 8.70264 | 3416 ft | 132 kts | 273° |
| 2026-05-05 22:54 | 47.44804 | 8.68944 | 3250 ft | 131 kts | 273° |
| 2026-05-05 22:54 | 47.44901 | 8.67610 | 3045 ft | 131 kts | 274° |
| 2026-05-05 22:54 | 47.44997 | 8.66273 | 2847 ft | 131 kts | 274° |
| 2026-05-05 22:54 | 47.45092 | 8.64940 | 2659 ft | 131 kts | 274° |
| 2026-05-05 22:55 | 47.45186 | 8.63600 | 2464 ft | 132 kts | 274° |
| 2026-05-05 22:55 | 47.45283 | 8.62241 | 2250 ft | 133 kts | 274° |
| 2026-05-05 22:55 | 47.45381 | 8.60874 | 2055 ft | 134 kts | 275° |
| 2026-05-05 22:55 | 47.45479 | 8.59493 | 1842 ft | 136 kts | 276° |
| 2026-05-05 22:56 | 47.45579 | 8.58108 | 1642 ft | 136 kts | 277° |
| 2026-05-05 22:56 | 47.45682 | 8.56716 | 1440 ft | 135 kts | 275° |
| 2026-05-05 22:56 | 47.45774 | 8.55431 | 1400 ft | 108 kts | 276° |
| 2026-05-05 22:56 | 47.45835 | 8.54581 | 1387 ft | 59 kts | 276° |
| 2026-05-05 22:57 | 47.45871 | 8.54281 | 1397 ft | 14 kts | 319° |
| 2026-05-05 22:57 | 47.45954 | 8.54282 | 1398 ft | 12 kts | 45° |
| 2026-05-05 22:57 | 47.45954 | 8.54401 | 1392 ft | 13 kts | 97° |
| 2026-05-05 22:57 | 47.45938 | 8.54571 | 1390 ft | 21 kts | 97° |
| 2026-05-05 22:58 | 47.45924 | 8.54810 | 1390 ft | 25 kts | 95° |
| 2026-05-05 22:58 | 47.45906 | 8.55065 | 1395 ft | 25 kts | 96° |
| 2026-05-05 22:58 | 47.45888 | 8.55319 | 1403 ft | 25 kts | 96° |
| 2026-05-05 22:58 | 47.45870 | 8.55567 | 1406 ft | 24 kts | 95° |
| 2026-05-05 22:59 | 47.45854 | 8.55803 | 1408 ft | 19 kts | 97° |
| 2026-05-05 22:59 | 47.45846 | 8.55858 | 1413 ft | 1 kts | 111° |
| 2026-05-05 22:59 | 47.45836 | 8.55875 | 1410 ft | 7 kts | 142° |
| 2026-05-05 22:59 | 47.45829 | 8.55880 | 1410 ft | 0 kts | 152° |
| 2026-05-05 23:00 | 47.45828 | 8.55880 | 1410 ft | 1 kts | 152° |
| 2026-05-05 23:00 | 47.45774 | 8.55875 | 1410 ft | 16 kts | 189° |
| 2026-05-05 23:00 | 47.45639 | 8.55855 | 1408 ft | 19 kts | 183° |
| 2026-05-05 23:01 | 47.45536 | 8.55843 | 1408 ft | 10 kts | 182° |
| 2026-05-05 23:01 | 47.45496 | 8.55922 | 1407 ft | 11 kts | 97° |
| 2026-05-05 23:01 | 47.45489 | 8.56018 | 1414 ft | 0 kts | 95° |
| 2026-05-05 23:01 | 47.45489 | 8.56019 | 1414 ft | 1 kts | 96° |
| 2026-05-05 23:02 | 47.45475 | 8.56058 | 1410 ft | 5 kts | 130° |
| 2026-05-05 23:02 | 47.45450 | 8.56068 | 1409 ft | 3 kts | 183° |
| 2026-05-05 23:02 | 47.45430 | 8.56065 | 1409 ft | 2 kts | 186° |
| 2026-05-05 23:02 | 47.45412 | 8.56062 | 1411 ft | 2 kts | 186° |
| 2026-05-05 23:03 | 47.45410 | 8.56062 | 1410 ft | 0 kts | 186° |